Weather at Koufonisi Heliport

Public forecast

Using degrees Celsius for public forecast. Weather courtesy of forecast.io.

Closest aviation weather report (METAR) to Koufonisi Heliport

Report is more than 2 hours old.

Closest report is Naxos Apollon Airport, 14.2 nm (26.2 km) NW. Retrieved 2021/06/15 13:50 UTC (4 hours ago):

LGNX 151350Z 36010G20KT 9999 SCT025 23/13 Q1013

Closest aviation forecast (TAF) to Koufonisi Heliport

Forecast is more than 12 hours old.

Closest forecast is Mikonos Airport, 32.3 nm (59.8 km) NNW. Retrieved 2012/09/27 00:18 UTC (9 years ago):

TAF TAF LGMK 272300Z 2800/2909 36016KT 9999 FEW020